Time;durP1;ratioP1;P1;durP2;ratioP2;P2;SDS_P1;SDS_P2;PMS_P1;PMS_P2;Temp;Humidity;BMP_temperature;BMP_pressure;BME280_temperature;BME280_humidity;BME280_pressure;Samples;Min_cycle;Max_cycle;Signal;HPM_P1;HPM_P2
2022/06/02 00:02:12;;;;;;;2.40;2.10;;;;;;;11.04;100.00;99247.09;5115794;28;20740;-78
2022/06/02 00:04:50;;;;;;;3.37;2.30;;;;;;;11.27;100.00;99253.53;5113318;28;20209;-78
2022/06/02 00:07:24;;;;;;;4.30;2.33;;;;;;;11.12;100.00;99252.75;5107584;28;20191;-78
2022/06/02 00:10:02;;;;;;;3.30;2.30;;;;;;;11.12;100.00;99258.06;5104936;28;20412;-78
2022/06/02 00:12:36;;;;;;;3.97;2.47;;;;;;;11.07;100.00;99262.78;5107459;28;20235;-78
2022/06/02 00:15:17;;;;;;;2.20;2.00;;;;;;;10.92;100.00;99254.03;5110164;28;20191;-79
2022/06/02 00:17:53;;;;;;;5.00;2.00;;;;;;;10.91;100.00;99260.28;5120371;28;20206;-78
2022/06/02 00:20:31;;;;;;;2.30;1.87;;;;;;;10.87;100.00;99256.97;5112997;28;20217;-78
2022/06/02 00:23:18;;;;;;;3.00;2.00;;;;;;;10.81;100.00;99261.81;5114852;27;20190;-79
2022/06/02 00:25:55;;;;;;;3.00;1.83;;;;;;;10.76;100.00;99262.09;5113299;28;20626;-78
2022/06/02 00:28:32;;;;;;;2.57;2.00;;;;;;;10.88;100.00;99258.66;5108906;28;20197;-78
2022/06/02 00:31:07;;;;;;;2.10;1.90;;;;;;;10.81;100.00;99259.16;5106131;28;20230;-78
2022/06/02 00:33:50;;;;;;;3.17;2.03;;;;;;;10.81;100.00;99262.66;5114606;28;20221;-78
2022/06/02 00:36:25;;;;;;;2.93;1.83;;;;;;;10.44;100.00;99263.25;5114149;28;20214;-78
2022/06/02 00:38:57;;;;;;;2.43;1.90;;;;;;;10.46;100.00;99262.22;5112807;28;20207;-79
2022/06/02 00:41:33;;;;;;;2.77;2.10;;;;;;;10.41;100.00;99266.94;5113015;28;20206;-78
2022/06/02 00:44:16;;;;;;;5.60;2.30;;;;;;;10.31;100.00;99265.78;5106624;28;20274;-78
2022/06/02 00:46:52;;;;;;;2.57;2.33;;;;;;;10.39;100.00;99273.28;5108986;28;20206;-78
2022/06/02 00:49:30;;;;;;;3.00;2.40;;;;;;;10.39;100.00;99267.97;5108621;28;20195;-78
2022/06/02 00:52:15;;;;;;;2.57;2.20;;;;;;;10.16;100.00;99264.91;5110035;28;20202;-78
2022/06/02 00:57:45;;;;;;;3.17;2.40;;;;;;;10.22;100.00;99276.94;5116317;28;20203;-78
2022/06/02 01:00:19;;;;;;;4.20;2.77;;;;;;;10.29;100.00;99287.06;5115407;28;20217;-78
2022/06/02 01:02:55;;;;;;;3.40;2.60;;;;;;;10.26;100.00;99286.41;5116494;28;20194;-79
2022/06/02 01:05:35;;;;;;;2.83;2.53;;;;;;;10.37;100.00;99291.06;5108188;28;20199;-78
2022/06/02 01:08:16;;;;;;;5.33;2.70;;;;;;;10.20;100.00;99287.59;5116357;28;20225;-78
2022/06/02 01:10:58;;;;;;;3.00;2.43;;;;;;;10.37;100.00;99291.91;5112474;28;20646;-78
2022/06/02 01:13:41;;;;;;;2.23;2.03;;;;;;;10.10;100.00;99294.38;5114057;28;20191;-78
2022/06/02 01:16:15;;;;;;;3.93;2.00;;;;;;;9.99;100.00;99292.38;5113252;28;20277;-78
2022/06/02 01:18:56;;;;;;;3.30;2.27;;;;;;;9.86;100.00;99294.06;5116342;28;20193;-78
2022/06/02 01:21:58;;;;;;;3.63;2.10;;;;;;;9.87;100.00;99297.56;5117640;27;20298;-78
2022/06/02 01:25:01;;;;;;;3.87;2.23;;;;;;;9.97;100.00;99294.28;5113098;28;20195;-78
2022/06/02 01:27:47;;;;;;;2.40;2.10;;;;;;;9.89;100.00;99299.16;5116052;28;20186;-78
2022/06/02 01:30:24;;;;;;;2.57;2.33;;;;;;;9.95;100.00;99300.59;5112651;28;20231;-78
2022/06/02 01:33:03;;;;;;;2.50;2.30;;;;;;;10.08;100.00;99298.06;5111216;28;20186;-78
2022/06/02 01:35:38;;;;;;;3.43;2.60;;;;;;;10.10;100.00;99304.97;5110395;28;20203;-78
2022/06/02 01:38:15;;;;;;;2.97;2.27;;;;;;;10.01;100.00;99303.72;5115685;28;20198;-79
2022/06/02 01:40:56;;;;;;;3.13;2.40;;;;;;;9.92;100.00;99308.69;5115209;27;20229;-78
2022/06/02 01:43:36;;;;;;;2.90;2.00;;;;;;;9.88;100.00;99305.41;5116779;27;20195;-78
2022/06/02 01:46:23;;;;;;;2.63;2.20;;;;;;;9.84;100.00;99311.78;5116036;27;20233;-78
2022/06/02 01:49:04;;;;;;;2.70;2.10;;;;;;;9.75;100.00;99317.66;5109743;28;20206;-79
2022/06/02 01:51:42;;;;;;;3.00;2.60;;;;;;;9.65;100.00;99321.72;5109046;28;20198;-78
2022/06/02 01:54:25;;;;;;;3.07;2.40;;;;;;;9.48;100.00;99320.06;5111142;28;20209;-79
2022/06/02 01:57:06;;;;;;;2.70;2.23;;;;;;;9.22;100.00;99324.19;5113945;28;20202;-78
2022/06/02 01:59:46;;;;;;;2.53;2.33;;;;;;;9.12;100.00;99322.97;5114314;28;20199;-78
2022/06/02 02:02:22;;;;;;;2.50;2.30;;;;;;;9.14;100.00;99334.31;5115158;28;20206;-78
2022/06/02 02:05:07;;;;;;;3.10;2.67;;;;;;;9.16;100.00;99330.63;5114542;28;20202;-78
2022/06/02 02:07:45;;;;;;;4.13;2.53;;;;;;;9.24;100.00;99330.22;5115349;28;20229;-78
2022/06/02 02:10:27;;;;;;;3.77;2.60;;;;;;;9.30;100.00;99334.34;5113391;28;20214;-78
2022/06/02 02:13:04;;;;;;;4.40;2.83;;;;;;;9.26;100.00;99330.97;5113083;28;20199;-78
2022/06/02 02:15:44;;;;;;;3.27;2.30;;;;;;;9.50;100.00;99328.75;5113893;28;20186;-79
2022/06/02 02:18:29;;;;;;;4.50;2.57;;;;;;;9.38;100.00;99324.19;5111914;28;20195;-78
2022/06/02 02:21:14;;;;;;;3.33;2.50;;;;;;;9.25;100.00;99336.38;5110746;28;20769;-78
2022/06/02 02:23:50;;;;;;;3.43;2.60;;;;;;;9.13;100.00;99333.47;5112331;28;20229;-80
2022/06/02 02:26:25;;;;;;;3.07;2.37;;;;;;;8.87;100.00;99334.88;5112021;28;20274;-79
2022/06/02 02:29:04;;;;;;;4.73;2.43;;;;;;;9.01;100.00;99334.16;5114952;27;20248;-78
2022/06/02 02:31:44;;;;;;;4.10;2.63;;;;;;;8.89;100.00;99327.75;5115878;27;20753;-78
2022/06/02 02:34:25;;;;;;;2.97;2.67;;;;;;;9.13;100.00;99329.97;5109658;28;20286;-78
2022/06/02 02:37:03;;;;;;;4.23;2.73;;;;;;;9.16;100.00;99330.63;5114849;28;20199;-78
2022/06/02 02:39:39;;;;;;;3.90;2.67;;;;;;;9.11;100.00;99335.34;5106315;28;20194;-78
2022/06/02 02:42:15;;;;;;;2.90;2.50;;;;;;;9.15;100.00;99336.88;5114566;28;20218;-78
2022/06/02 02:44:51;;;;;;;4.30;2.97;;;;;;;9.00;100.00;99347.44;5110406;28;20206;-78
2022/06/02 02:47:23;;;;;;;5.53;2.77;;;;;;;8.77;100.00;99340.75;5111688;28;20272;-78
2022/06/02 02:50:00;;;;;;;5.17;2.87;;;;;;;8.77;100.00;99344.25;5114616;28;20645;-78
2022/06/02 02:52:41;;;;;;;3.10;2.80;;;;;;;8.66;100.00;99348.38;5114552;28;20218;-78
2022/06/02 02:55:15;;;;;;;3.20;2.90;;;;;;;8.63;100.00;99349.41;5114384;28;20182;-78
2022/06/02 02:57:52;;;;;;;3.10;2.80;;;;;;;8.51;100.00;99350.94;5111429;28;20203;-79
2022/06/02 03:00:24;;;;;;;3.27;2.97;;;;;;;8.62;100.00;99349.50;5106465;28;20229;-78
2022/06/02 03:03:02;;;;;;;4.23;3.10;;;;;;;8.39;100.00;99348.91;5108635;28;20210;-78
2022/06/02 03:05:39;;;;;;;5.33;3.50;;;;;;;8.27;100.00;99355.63;5114172;28;20191;-78
2022/06/02 03:08:15;;;;;;;4.27;3.10;;;;;;;8.16;100.00;99363.25;5115670;27;20191;-78
2022/06/02 03:10:45;;;;;;;3.73;3.33;;;;;;;8.09;100.00;99366.28;5105426;28;20216;-78
2022/06/02 03:13:33;;;;;;;3.93;2.93;;;;;;;8.04;100.00;99364.72;5110820;28;20695;-78
2022/06/02 03:16:06;;;;;;;6.30;3.50;;;;;;;8.13;100.00;99379.25;5112798;28;20278;-78
2022/06/02 03:18:57;;;;;;;4.00;3.60;;;;;;;8.22;100.00;99370.03;5109054;28;20209;-78
2022/06/02 03:21:33;;;;;;;5.50;3.33;;;;;;;8.24;100.00;99371.63;5107959;28;20207;-79
2022/06/02 03:24:22;;;;;;;4.30;3.30;;;;;;;8.28;100.00;99375.81;5114060;28;20194;-78
2022/06/02 03:26:59;;;;;;;3.67;3.37;;;;;;;8.31;100.00;99377.47;5114857;27;20208;-78
2022/06/02 03:29:39;;;;;;;3.30;3.00;;;;;;;8.40;100.00;99379.66;5105173;28;20226;-78
2022/06/02 03:32:15;;;;;;;4.17;3.30;;;;;;;8.32;100.00;99384.44;5115053;27;20191;-78
2022/06/02 03:34:51;;;;;;;3.53;3.23;;;;;;;8.45;100.00;99387.34;5122399;28;20225;-78
2022/06/02 03:37:30;;;;;;;3.20;2.90;;;;;;;8.52;100.00;99386.94;5113849;28;20218;-78
2022/06/02 03:40:23;;;;;;;3.53;3.10;;;;;;;8.39;100.00;99382.34;5113682;28;20274;-78
2022/06/02 03:43:01;;;;;;;3.30;3.00;;;;;;;8.35;100.00;99386.94;5113466;28;20660;-78
2022/06/02 03:45:42;;;;;;;4.20;2.80;;;;;;;8.45;100.00;99384.69;5106536;28;20206;-78
2022/06/02 03:48:32;;;;;;;3.47;3.17;;;;;;;8.40;100.00;99403.41;5106887;28;20199;-78
2022/06/02 03:51:09;;;;;;;3.53;3.13;;;;;;;8.38;100.00;99405.25;5100888;28;20205;-78
2022/06/02 03:54:03;;;;;;;4.27;2.80;;;;;;;8.32;100.00;99409.06;5116148;27;20182;-78
2022/06/02 03:56:49;;;;;;;5.87;2.97;;;;;;;8.11;100.00;99415.41;5115656;28;20199;-78
2022/06/02 03:59:35;;;;;;;3.87;2.90;;;;;;;8.16;100.00;99409.88;5112094;28;20250;-78
2022/06/02 04:02:09;;;;;;;4.20;3.33;;;;;;;8.18;100.00;99408.88;5113351;28;20221;-78
2022/06/02 04:04:50;;;;;;;4.73;3.40;;;;;;;8.13;100.00;99416.19;5109238;28;20421;-78
2022/06/02 04:07:32;;;;;;;5.50;4.10;;;;;;;8.36;100.00;99420.31;5113989;28;20214;-78
2022/06/02 04:10:13;;;;;;;4.03;3.27;;;;;;;8.38;100.00;99426.38;5109176;28;20187;-78
2022/06/02 04:16:34;;;;;;;4.33;3.37;;;;;;;8.70;100.00;99434.47;5112157;28;20194;-78
2022/06/02 04:22:20;;;;;;;3.43;2.90;;;;;;;8.97;100.00;99438.25;5113081;28;20217;-78
2022/06/02 04:25:00;;;;;;;3.97;3.30;;;;;;;9.01;100.00;99438.97;5109288;28;20197;-79
2022/06/02 04:27:38;;;;;;;3.90;3.50;;;;;;;8.98;100.00;99450.56;5107577;28;20199;-78
2022/06/02 04:30:17;;;;;;;3.70;3.40;;;;;;;9.12;100.00;99445.38;5110390;28;20237;-78
2022/06/02 04:32:52;;;;;;;3.80;3.40;;;;;;;9.28;100.00;99452.50;5117120;28;20232;-78
2022/06/02 04:35:32;;;;;;;3.83;3.43;;;;;;;9.34;100.00;99449.50;5117335;28;20190;-78
2022/06/02 04:38:09;;;;;;;3.60;3.30;;;;;;;9.37;100.00;99447.56;5117454;28;20198;-79
2022/06/02 04:40:44;;;;;;;4.00;3.60;;;;;;;9.18;100.00;99445.06;5117070;28;20191;-78
2022/06/02 04:43:23;;;;;;;5.73;3.40;;;;;;;9.34;100.00;99445.06;5114021;28;20218;-78
2022/06/02 04:46:06;;;;;;;4.60;3.50;;;;;;;9.36;100.00;99451.16;5117964;27;20191;-78
2022/06/02 04:48:41;;;;;;;6.13;3.60;;;;;;;9.44;100.00;99458.66;5111232;28;20282;-78
2022/06/02 04:51:18;;;;;;;4.30;3.30;;;;;;;9.48;100.00;99459.34;5119492;27;20202;-79
2022/06/02 04:53:54;;;;;;;4.97;3.47;;;;;;;9.62;100.00;99454.16;5110603;28;20702;-78
2022/06/02 04:56:30;;;;;;;4.03;3.03;;;;;;;9.72;100.00;99455.34;5113663;28;20187;-79
2022/06/02 04:59:07;;;;;;;3.60;3.30;;;;;;;9.61;100.00;99453.28;5110492;28;20193;-79
2022/06/02 05:01:48;;;;;;;4.40;3.30;;;;;;;9.72;100.00;99461.47;5116546;28;20222;-79
2022/06/02 05:04:28;;;;;;;3.17;2.90;;;;;;;9.77;100.00;99458.59;5112600;28;20203;-78
2022/06/02 05:07:07;;;;;;;5.10;3.50;;;;;;;9.67;100.00;99460.91;5117892;27;20195;-79
2022/06/02 05:09:42;;;;;;;5.20;3.80;;;;;;;9.63;100.00;99459.34;5115412;28;20190;-79
2022/06/02 05:12:22;;;;;;;4.10;3.70;;;;;;;9.85;100.00;99458.16;5110805;28;20195;-78
2022/06/02 05:15:01;;;;;;;5.10;3.50;;;;;;;9.96;100.00;99447.84;5115468;28;20198;-79
2022/06/02 05:18:06;;;;;;;5.47;3.50;;;;;;;9.98;100.00;99456.53;5116523;28;20676;-79
2022/06/02 05:20:53;;;;;;;4.93;3.63;;;;;;;9.93;100.00;99458.56;5111997;28;20237;-79
2022/06/02 05:23:49;;;;;;;4.43;3.43;;;;;;;10.09;100.00;99456.75;5110663;28;20218;-79
2022/06/02 05:26:32;;;;;;;3.87;3.57;;;;;;;10.24;100.00;99450.63;5110802;28;20194;-79
2022/06/02 05:29:42;;;;;;;4.07;3.60;;;;;;;10.20;100.00;99461.44;5114559;28;20195;-78
2022/06/02 05:32:28;;;;;;;4.13;3.80;;;;;;;10.29;100.00;99461.78;5106645;28;20199;-78
2022/06/02 05:35:19;;;;;;;4.13;3.63;;;;;;;10.50;100.00;99462.34;5111833;28;20198;-79
2022/06/02 05:38:02;;;;;;;4.50;3.70;;;;;;;10.53;100.00;99463.97;5107569;28;20210;-79
2022/06/02 05:40:37;;;;;;;5.77;4.10;;;;;;;10.62;100.00;99465.22;5111515;28;20187;-78
2022/06/02 05:43:18;;;;;;;5.13;3.90;;;;;;;10.73;100.00;99476.88;5117642;27;20221;-79
2022/06/02 05:46:03;;;;;;;4.30;3.90;;;;;;;10.84;100.00;99477.09;5113152;28;20199;-79
2022/06/02 05:48:45;;;;;;;4.33;3.67;;;;;;;10.89;100.00;99482.09;5107324;28;20195;-79
2022/06/02 05:51:23;;;;;;;5.10;4.00;;;;;;;10.99;100.00;99483.25;5110196;28;20191;-79
2022/06/02 05:54:06;;;;;;;4.80;4.30;;;;;;;10.97;100.00;99479.84;5115469;28;20270;-79
2022/06/02 05:56:47;;;;;;;4.83;4.33;;;;;;;11.11;100.00;99481.69;5111470;28;20270;-79
2022/06/02 05:59:51;;;;;;;6.37;4.30;;;;;;;11.29;100.00;99490.28;5114316;28;20275;-79
2022/06/02 06:02:57;;;;;;;5.23;4.50;;;;;;;11.40;100.00;99483.38;5115279;28;20222;-79
2022/06/02 06:05:29;;;;;;;4.90;4.50;;;;;;;11.52;100.00;99484.41;5094463;28;20202;-79
2022/06/02 06:08:25;;;;;;;5.80;4.50;;;;;;;11.52;100.00;99486.22;5114400;28;20198;-78
2022/06/02 06:11:07;;;;;;;5.50;4.47;;;;;;;11.63;100.00;99483.75;5110514;28;20206;-79
2022/06/02 06:13:59;;;;;;;6.40;5.17;;;;;;;11.75;100.00;99491.75;5115124;28;20203;-78
2022/06/02 06:16:34;;;;;;;5.53;5.03;;;;;;;11.81;100.00;99487.91;5115176;28;20202;-79
2022/06/02 06:19:26;;;;;;;6.00;5.00;;;;;;;11.85;100.00;99505.34;5113795;28;20281;-79
2022/06/02 06:22:13;;;;;;;7.10;6.03;;;;;;;12.14;100.00;99505.28;5112054;28;20198;-79
2022/06/02 06:25:02;;;;;;;6.40;5.80;;;;;;;12.28;100.00;99503.44;5109238;28;20669;-79
2022/06/02 06:27:42;;;;;;;9.00;6.20;;;;;;;12.22;100.00;99503.81;5107450;28;20194;-78
2022/06/02 06:30:23;;;;;;;7.97;6.93;;;;;;;12.51;100.00;99499.25;5114862;27;20230;-79
2022/06/02 06:33:04;;;;;;;10.43;6.67;;;;;;;12.72;100.00;99512.06;5111730;28;20195;-78
2022/06/02 06:35:46;;;;;;;8.93;6.23;;;;;;;12.73;100.00;99516.41;5114697;27;20225;-78
2022/06/02 06:38:40;;;;;;;6.80;6.10;;;;;;;12.65;100.00;99519.59;5111747;28;20274;-78
2022/06/02 06:41:24;;;;;;;6.77;6.17;;;;;;;12.81;100.00;99519.41;5114536;28;20199;-79
2022/06/02 06:44:15;;;;;;;6.97;6.13;;;;;;;12.88;100.00;99521.56;5105932;28;20249;-79
2022/06/02 06:46:50;;;;;;;6.87;5.93;;;;;;;13.14;100.00;99516.28;5114466;28;20673;-79
2022/06/02 06:49:21;;;;;;;7.63;6.03;;;;;;;12.97;100.00;99516.56;5108864;28;20286;-78
2022/06/02 06:52:05;;;;;;;7.37;6.10;;;;;;;13.09;100.00;99516.59;5109895;28;20191;-78
2022/06/02 06:54:46;;;;;;;6.80;6.10;;;;;;;13.22;100.00;99524.63;5107548;28;20267;-78
2022/06/02 06:57:22;;;;;;;7.83;6.10;;;;;;;13.16;100.00;99525.00;5114718;28;20183;-78
2022/06/02 07:00:02;;;;;;;6.07;5.30;;;;;;;13.44;100.00;99524.81;5112965;28;20224;-78
2022/06/02 07:02:45;;;;;;;7.20;5.53;;;;;;;13.45;100.00;99529.19;5114039;28;20216;-78
2022/06/02 07:05:21;;;;;;;6.50;5.90;;;;;;;13.51;100.00;99532.34;5111425;28;20494;-79
2022/06/02 07:08:00;;;;;;;6.37;5.77;;;;;;;13.56;100.00;99539.06;5114219;28;20202;-78
2022/06/02 07:10:35;;;;;;;6.57;5.50;;;;;;;13.70;100.00;99532.75;5107816;28;20198;-78
2022/06/02 07:13:15;;;;;;;7.83;5.60;;;;;;;13.95;100.00;99538.06;5109889;28;20195;-78
2022/06/02 07:15:52;;;;;;;8.63;6.13;;;;;;;13.79;100.00;99544.56;5114361;27;20189;-78
2022/06/02 07:18:34;;;;;;;7.03;5.83;;;;;;;13.82;100.00;99539.91;5113935;28;20714;-78
2022/06/02 07:21:13;;;;;;;6.37;5.77;;;;;;;14.01;100.00;99540.28;5110804;28;20199;-78
2022/06/02 07:23:56;;;;;;;6.67;5.40;;;;;;;14.18;100.00;99532.88;5113610;28;20214;-78
2022/06/02 07:26:37;;;;;;;6.13;5.00;;;;;;;14.44;100.00;99537.16;5115150;27;20195;-79
2022/06/02 07:29:14;;;;;;;5.60;4.80;;;;;;;14.40;100.00;99532.16;5109326;28;20209;-78
2022/06/02 07:32:13;;;;;;;5.60;4.93;;;;;;;14.37;100.00;99535.03;5112259;28;20278;-78
2022/06/02 07:35:04;;;;;;;5.77;4.53;;;;;;;14.71;100.00;99520.94;5107884;28;20191;-79
2022/06/02 07:37:40;;;;;;;5.13;4.60;;;;;;;14.50;100.00;99517.22;5113718;28;20188;-79
2022/06/02 07:40:29;;;;;;;6.70;5.03;;;;;;;14.69;100.00;99511.38;5110463;28;20645;-79
2022/06/02 07:43:25;;;;;;;5.50;4.87;;;;;;;15.14;100.00;99512.31;5107545;28;20215;-79
2022/06/02 07:46:04;;;;;;;6.50;5.20;;;;;;;15.02;100.00;99514.13;5112247;28;20264;-79
2022/06/02 07:49:04;;;;;;;6.63;4.80;;;;;;;15.08;100.00;99504.81;5113336;28;20191;-79
2022/06/02 07:51:42;;;;;;;6.17;4.90;;;;;;;15.37;100.00;99494.56;5103898;28;20207;-79
2022/06/02 07:54:27;;;;;;;6.33;5.50;;;;;;;15.71;100.00;99485.56;5110355;28;20646;-79
2022/06/02 07:57:08;;;;;;;5.53;5.00;;;;;;;15.52;100.00;99498.66;5109243;28;20649;-79
2022/06/02 07:59:55;;;;;;;6.20;5.33;;;;;;;15.51;100.00;99486.28;5110114;28;20190;-79
2022/06/02 08:02:40;;;;;;;7.73;5.60;;;;;;;15.68;100.00;99487.66;5109571;28;20310;-78
2022/06/02 08:05:23;;;;;;;5.90;4.87;;;;;;;15.63;100.00;99488.03;5113042;28;20199;-79
2022/06/02 08:07:54;;;;;;;6.57;5.80;;;;;;;15.66;100.00;99487.78;5108764;28;20183;-79
2022/06/02 08:10:34;;;;;;;5.37;4.80;;;;;;;16.04;100.00;99491.88;5106245;28;20195;-79
2022/06/02 08:13:11;;;;;;;4.93;4.43;;;;;;;16.02;100.00;99491.16;5109790;28;20197;-79
2022/06/02 08:15:51;;;;;;;5.83;3.80;;;;;;;16.32;100.00;99493.13;5108724;28;20194;-79
2022/06/02 08:18:33;;;;;;;4.37;3.90;;;;;;;16.48;100.00;99480.19;5114111;28;20197;-79
2022/06/02 08:21:16;;;;;;;5.30;3.90;;;;;;;16.60;100.00;99479.19;5111667;28;20199;-79
2022/06/02 08:24:13;;;;;;;6.57;3.90;;;;;;;16.66;100.00;99484.97;5109107;28;20294;-79
2022/06/02 08:26:53;;;;;;;4.27;3.83;;;;;;;16.48;100.00;99490.03;5109487;28;20195;-79
2022/06/02 08:29:30;;;;;;;4.93;3.63;;;;;;;16.96;100.00;99486.91;5111807;28;20685;-79
2022/06/02 08:32:19;;;;;;;5.60;3.80;;;;;;;16.96;100.00;99502.97;5115294;28;20202;-79
2022/06/02 08:35:04;;;;;;;4.67;3.37;;;;;;;17.10;100.00;99499.97;5109315;28;20232;-79
2022/06/02 08:37:46;;;;;;;5.17;4.53;;;;;;;17.19;100.00;99501.88;5111018;28;20226;-79
2022/06/02 08:40:52;;;;;;;4.00;3.60;;;;;;;17.32;100.00;99494.47;5112862;28;20244;-79
2022/06/02 08:43:51;;;;;;;3.97;3.30;;;;;;;17.16;100.00;99497.59;5107073;28;20264;-79
2022/06/02 08:46:47;;;;;;;3.83;3.07;;;;;;;17.40;100.00;99502.69;5113046;28;20195;-79
2022/06/02 08:49:46;;;;;;;3.30;2.67;;;;;;;17.15;100.00;99500.41;5106337;28;20302;-79
2022/06/02 08:52:46;;;;;;;2.80;2.60;;;;;;;17.42;100.00;99502.56;5108069;28;20202;-79
2022/06/02 08:55:50;;;;;;;2.60;2.40;;;;;;;17.84;100.00;99513.19;5112650;28;20278;-79
2022/06/02 08:59:02;;;;;;;2.97;2.40;;;;;;;17.43;97.61;99518.47;5112738;28;20210;-79
2022/06/02 09:01:54;;;;;;;3.63;2.40;;;;;;;17.08;97.43;99513.50;5108471;28;20203;-79
2022/06/02 09:04:50;;;;;;;3.17;2.40;;;;;;;17.11;100.00;99509.69;5113471;28;20215;-79
2022/06/02 09:07:54;;;;;;;3.90;2.97;;;;;;;16.61;98.96;99517.47;5109750;28;20195;-79
2022/06/02 09:10:49;;;;;;;3.07;2.53;;;;;;;16.78;100.00;99526.78;5089474;28;20220;-79
2022/06/02 09:14:05;;;;;;;3.53;2.70;;;;;;;17.24;100.00;99526.41;5108747;28;20206;-79
2022/06/02 09:16:50;;;;;;;3.17;2.87;;;;;;;17.09;100.00;99538.44;5113216;28;20202;-79
2022/06/02 09:19:34;;;;;;;4.03;3.00;;;;;;;17.68;99.15;99527.06;5111865;28;20191;-79
2022/06/02 09:22:13;;;;;;;4.07;2.97;;;;;;;17.29;98.31;99521.50;5109206;28;20228;-79
2022/06/02 09:24:51;;;;;;;3.30;2.90;;;;;;;17.31;97.96;99532.09;5112582;28;20222;-79
2022/06/02 09:27:50;;;;;;;5.60;3.70;;;;;;;17.35;99.23;99534.34;5116187;28;20194;-79
2022/06/02 09:30:35;;;;;;;2.97;2.67;;;;;;;17.96;94.16;99530.88;5114760;28;20218;-78
2022/06/02 09:33:37;;;;;;;4.23;2.97;;;;;;;18.22;89.85;99529.38;5115961;28;20214;-79
2022/06/02 09:36:37;;;;;;;3.40;2.80;;;;;;;18.03;94.47;99523.97;5116032;28;20201;-79
2022/06/02 09:39:22;;;;;;;3.17;2.67;;;;;;;18.26;88.43;99527.31;5112897;28;20203;-79
2022/06/02 09:42:10;;;;;;;3.73;2.87;;;;;;;18.51;83.29;99523.22;5110090;28;20206;-78
2022/06/02 09:44:50;;;;;;;3.40;2.60;;;;;;;18.09;84.54;99518.06;5115347;27;20211;-79
2022/06/02 09:47:41;;;;;;;3.27;2.53;;;;;;;18.54;81.15;99518.44;5107587;28;20210;-78
2022/06/02 09:50:25;;;;;;;3.03;2.60;;;;;;;18.75;82.12;99515.66;5112669;28;20203;-79
2022/06/02 09:53:23;;;;;;;2.77;2.20;;;;;;;19.18;80.84;99514.34;5115737;28;20202;-79
2022/06/02 09:56:08;;;;;;;3.77;2.37;;;;;;;19.13;81.31;99519.31;5115345;28;20278;-79
2022/06/02 10:01:46;;;;;;;2.43;2.20;;;;;;;19.72;75.46;99508.28;5067029;28;20728;-79
2022/06/02 10:04:39;;;;;;;3.20;2.50;;;;;;;19.62;75.72;99517.38;5070871;27;20215;-79
2022/06/02 10:07:40;;;;;;;2.70;2.00;;;;;;;19.87;71.10;99513.16;5066778;28;20192;-78
2022/06/02 10:10:29;;;;;;;1.97;1.77;;;;;;;19.64;69.58;99512.69;5070483;27;20279;-79
2022/06/02 10:13:20;;;;;;;2.50;1.87;;;;;;;20.01;68.94;99507.28;5065124;28;20203;-79
2022/06/02 10:16:06;;;;;;;2.47;1.85;;;;;;;20.22;61.03;99512.41;5067276;27;20197;-79
2022/06/02 10:18:53;;;;;;;2.13;1.70;;;;;;;20.66;60.57;99512.56;5122776;27;20193;-78
2022/06/02 10:21:32;;;;;;;2.27;1.80;;;;;;;20.33;59.85;99509.50;5110064;27;20216;-79
2022/06/02 10:24:46;;;;;;;1.60;1.50;;;;;;;20.71;59.52;99500.31;5066235;27;20276;-79
2022/06/02 10:28:09;;;;;;;1.80;1.70;;;;;;;20.52;59.73;99495.94;5046094;28;20378;-80
2022/06/02 10:31:25;;;;;;;3.17;1.38;;;;;;;21.05;56.04;99491.53;5045111;28;20201;-79
2022/06/02 10:34:41;;;;;;;1.88;1.63;;;;;;;21.12;56.45;99485.31;5029140;28;20772;-79
2022/06/02 10:37:27;;;;;;;1.30;1.20;;;;;;;20.83;58.58;99485.63;5046272;28;20217;-80
2022/06/02 10:40:14;;;;;;;2.07;1.43;;;;;;;19.97;59.45;99485.22;5043459;28;20217;-80
2022/06/02 10:42:56;;;;;;;3.40;1.50;;;;;;;21.05;57.85;99486.97;5046079;28;20193;-79
2022/06/02 10:46:03;;;;;;;2.00;1.38;;;;;;;21.34;61.31;99489.41;5047043;28;20280;-79
2022/06/02 10:49:00;;;;;;;1.55;1.42;;;;;;;21.31;59.19;99491.56;5046038;28;20280;-79
2022/06/02 10:52:06;;;;;;;2.53;1.85;;;;;;;22.05;54.82;99487.38;5045917;28;20201;-80
2022/06/02 10:55:12;;;;;;;3.17;1.70;;;;;;;21.90;53.64;99482.59;5046159;28;20203;-79
2022/06/02 10:58:22;;;;;;;1.45;1.35;;;;;;;22.29;53.68;99476.66;5062491;28;20197;-79
2022/06/02 11:01:05;;;;;;;2.67;1.73;;;;;;;22.65;52.12;99481.78;5089879;28;20229;-79
2022/06/02 11:04:26;;;;;;;1.77;1.50;;;;;;;23.04;49.70;99480.13;5045769;28;20202;-79
2022/06/02 11:07:31;;;;;;;2.35;1.70;;;;;;;22.23;50.16;99475.50;5042535;28;20381;-80
2022/06/02 11:10:30;;;;;;;2.55;1.52;;;;;;;22.05;50.95;99468.50;5043342;28;20197;-79
2022/06/02 11:13:33;;;;;;;2.25;1.50;;;;;;;22.36;51.80;99469.59;5031319;28;20275;-79
2022/06/02 11:16:37;;;;;;;2.50;1.52;;;;;;;22.06;55.00;99464.78;5028972;28;20201;-80
2022/06/02 11:19:47;;;;;;;1.90;1.30;;;;;;;22.33;56.46;99461.84;5051954;28;20206;-79
2022/06/02 11:22:52;;;;;;;1.48;1.35;;;;;;;22.62;55.97;99452.44;5032201;28;20194;-79
2022/06/02 11:26:06;;;;;;;2.45;1.42;;;;;;;23.36;53.40;99451.38;5032224;28;20197;-79
2022/06/02 11:29:18;;;;;;;3.42;1.40;;;;;;;23.57;48.38;99453.53;5031399;28;20275;-79
2022/06/02 11:32:13;;;;;;;4.68;1.33;;;;;;;23.46;51.50;99456.59;4988965;28;20222;-80
2022/06/02 11:35:18;;;;;;;1.38;1.27;;;;;;;24.30;51.50;99449.63;4989105;28;20199;-80
2022/06/02 11:38:34;;;;;;;2.05;1.25;;;;;;;23.72;55.13;99448.25;5020926;28;20201;-80
2022/06/02 11:41:27;;;;;;;2.05;1.40;;;;;;;23.51;53.30;99454.22;5045542;27;20240;-80
2022/06/02 11:44:05;;;;;;;1.40;1.20;;;;;;;23.54;50.36;99460.09;5030333;28;20202;-79
2022/06/02 11:47:06;;;;;;;1.40;1.25;;;;;;;22.74;56.41;99459.19;5025392;28;20216;-79
2022/06/02 11:50:06;;;;;;;2.50;1.60;;;;;;;22.31;56.75;99450.38;5031876;28;20189;-79
2022/06/02 11:53:02;;;;;;;2.03;1.50;;;;;;;23.17;55.81;99451.78;5031602;28;20194;-79
2022/06/02 11:55:37;;;;;;;1.13;1.02;;;;;;;23.23;53.36;99443.78;5030545;28;20212;-80
2022/06/02 11:58:32;;;;;;;2.53;1.00;;;;;;;23.36;52.39;99446.81;5031812;28;20186;-79
2022/06/02 12:01:26;;;;;;;2.03;1.30;;;;;;;24.15;48.10;99438.75;5029124;28;20226;-79
2022/06/02 12:04:31;;;;;;;1.58;1.30;;;;;;;24.17;48.30;99429.41;5031658;28;20205;-79
2022/06/02 12:07:27;;;;;;;1.92;1.20;;;;;;;23.61;49.86;99438.66;5031195;28;20656;-79
2022/06/02 12:10:43;;;;;;;1.80;1.30;;;;;;;24.10;49.43;99433.00;5030444;28;20204;-80
2022/06/02 12:13:29;;;;;;;4.55;1.45;;;;;;;24.60;45.87;99434.38;5027785;28;20206;-80
2022/06/02 12:16:23;;;;;;;3.53;1.58;;;;;;;24.13;45.11;99429.97;5028885;28;20209;-80
2022/06/02 12:19:16;;;;;;;1.50;1.23;;;;;;;23.19;49.17;99428.09;5031605;28;20198;-79
2022/06/02 12:22:00;;;;;;;2.05;1.45;;;;;;;22.90;50.68;99424.09;5026934;28;20222;-79
2022/06/02 12:25:03;;;;;;;2.10;1.30;;;;;;;23.26;53.12;99420.97;5027800;28;20201;-79
2022/06/02 12:27:55;;;;;;;2.35;1.20;;;;;;;24.11;48.97;99415.75;5036624;27;20205;-79
2022/06/02 12:34:02;;;;;;;1.33;1.23;;;;;;;24.33;48.16;99417.66;5067006;28;20545;-79
2022/06/02 12:37:01;;;;;;;1.52;1.10;;;;;;;24.78;46.52;99416.78;5068632;27;20192;-78
2022/06/02 12:39:54;;;;;;;2.17;1.35;;;;;;;23.83;48.66;99413.53;5066899;28;20219;-80
2022/06/02 12:42:59;;;;;;;2.38;1.30;;;;;;;23.51;51.39;99416.34;5067232;28;20643;-79
2022/06/02 12:45:49;;;;;;;1.42;1.27;;;;;;;22.88;49.94;99426.13;5074175;27;20249;-79
2022/06/02 12:48:48;;;;;;;1.95;1.25;;;;;;;23.35;50.04;99433.47;5066863;28;20197;-79
2022/06/02 12:51:29;;;;;;;1.80;1.30;;;;;;;24.40;46.86;99426.75;5066575;28;20280;-79
2022/06/02 12:54:42;;;;;;;1.38;1.15;;;;;;;24.81;45.17;99426.44;5063619;28;20208;-79
2022/06/02 12:57:47;;;;;;;1.63;1.10;;;;;;;24.33;45.01;99430.38;5063287;27;20215;-79
2022/06/02 13:00:45;;;;;;;2.20;1.30;;;;;;;24.53;44.17;99426.16;5064958;28;20211;-79
2022/06/02 13:03:50;;;;;;;2.55;1.23;;;;;;;24.54;45.17;99423.25;5066491;28;20196;-79
2022/06/02 13:06:55;;;;;;;1.42;1.27;;;;;;;24.59;43.71;99427.28;5065975;28;20200;-80
2022/06/02 13:09:36;;;;;;;1.45;1.20;;;;;;;24.61;43.44;99425.22;5068865;28;20220;-79
2022/06/02 13:12:38;;;;;;;1.63;1.10;;;;;;;25.06;42.69;99418.94;5066213;28;20221;-79
2022/06/02 13:15:39;;;;;;;1.90;1.25;;;;;;;25.30;42.02;99417.84;5064860;28;20295;-78